x

Santa Monica Basin - 33nm Wsw Of Santa Monica, Ca (46025) Wave Buoy

7:50 - Fri 17th Apr 2015 All times are PDT. -7 hours from GMT.

  • Sig Wave height 2.6ft
  • Swell Direction
  • Peak Period 17s
  • Average Period 5s
  • Wind
    13mph, 16mph gusts
  • Sea Temp 63°f
  • Aire Temp 63°f
  • Sea Pressure 1015.5mb
  • Santa Monica Basin - 33nm Wsw Of Santa Monica, Ca
  • Santa Monica Basin - 33nm Wsw Of Santa Monica, Ca

More Historic Weather Station data

Upgrade to MSW Pro to gain access to the past 30 days of data for over 8000 Wavebouys and Weather Stations around the globe.

Join Pro

Comparision Forecast

View Surf forecast
   
vie 04/17 7:50 2.5ft 17s 5s 13 16 mph 1015.5mb 63f 63f
6:50 2.5ft 17s 5s 13 16 mph 1015.5mb 63f 63f
5:50 3ft 17s 5s 13 16 mph 1015.5mb 63f 64f
4:50 2.5ft 14s 5s 13 16 mph 1015.7mb 63f 63f
3:50 3ft 17s 5s 16 20 mph 1015.9mb 63f 63f
2:50 3ft 17s 5s 16 20 mph 1016.7mb 63f 63f
1:50 3ft 13s 6s 18 20 mph 1017.2mb 64f 63f
12:50 2.5ft 19s 8s 13 16 mph 1017.6mb 64f 63f
11:50 2.5ft 17s 8s 9 11 mph 1017.8mb 64f 64f
10:50 2.5ft 14s 8s 2 4 mph 1018.1mb 65f 64f
9:50 2.5ft 19s 7s 2
mph
1017.8mb 63f 64f
8:50 2.5ft 19s 7s 7
mph
1017.5mb 63f 62f
7:50 2.5ft 14s 7s 2 4 mph 1017.4mb 62f 62f
6:50 3ft 19s 7s 4 7 mph 1017.1mb 62f 62f
5:50 2.5ft 14s 7s 7 9 mph 1016.6mb 62f 61f
4:50 2.5ft 21s 8s 7
mph
1016.4mb 62f 62f
3:50 2.5ft 21s 7s 7
mph
1016.8mb 62f 62f
2:50 2.5ft 21s 7s 7
mph
1017mb 62f 63f
1:50 2.5ft 14s 8s 9 11 mph 1017.2mb 62f 62f
12:50 2.5ft 14s 8s 7 9 mph 1017.6mb 62f 62f
jue 04/16 11:50 2.5ft 14s 8s 7
mph
1017.5mb 63f 62f
10:50 2.5ft 11s 8s 7
mph
1017.3mb 63f 63f
9:50 2.5ft 14s 8s 2
mph
1017.3mb 63f 64f
8:50 2.5ft 14s 8s 2
mph
1016.4mb 63f 63f
7:50 2.5ft 15s 7s 4 7 mph 1015.4mb 63f 64f
6:50 2.5ft 13s 7s 7 9 mph 1014.8mb 63f 64f
5:50 2.5ft 14s 7s 9 11 mph 1014.5mb 63f 65f
4:50 2.5ft 14s 7s 11 13 mph 1014.6mb 63f 65f
3:50 3ft 14s 7s 11 13 mph 1015.1mb 63f 65f
2:50 3ft 14s 7s 11 13 mph 1015.5mb 64f 65f
1:50 3ft 15s 7s 9 13 mph 1015.9mb 64f 65f
12:50 3ft 14s 7s 9 11 mph 1016.2mb 63f 65f
11:50 2.5ft 14s 6s 9 11 mph 1016.7mb 63f 65f
10:50 2.5ft 14s 6s 9 11 mph 1016.8mb 63f 65f
9:50 3ft 14s 6s 11 13 mph 1016.3mb 62f 65f
8:50 3ft 15s 6s 11
mph
1015.7mb 62f 64f
7:50 3.5ft 14s 6s 11 13 mph 1015.3mb 62f 64f
6:50 3.5ft 14s 6s 9 11 mph 1014.3mb 62f 62f
5:50 3.5ft 15s 6s 11 13 mph 1013.6mb 62f 63f
4:50 3.5ft 7s 6s 9 11 mph 1013mb 62f 63f
3:50 3.5ft 6s 6s 9 11 mph 1012.9mb 62f 63f
2:50 3.5ft 7s 6s 11 13 mph 1012.7mb 62f 63f
1:50 3.5ft 7s 5s 11
mph
1013mb 62f 63f
12:50 3.5ft 5s 5s 13 16 mph 1013mb 62f 62f
mié 04/15 11:50 3.5ft 10s 5s 16 20 mph 1012.8mb 63f 61f
10:50  -   -   -  13 16 mph 1013mb 63f 62f
9:50  -   -   -  9
mph
1013.1mb 62f 62f
8:50  -   -   -  11
mph
1012.4mb 62f 61f
7:50 3.5ft 5s 5s 11
mph
1012.1mb 63f 62f
6:50  -   -   -  11
mph
1012.3mb 63f 62f
5:50 3.5ft 16s 5s 7 9 mph 1012.6mb 63f 64f
4:50 3.5ft 9s 5s 11 13 mph 1012.9mb 63f 63f
3:50 3.5ft 15s 5s 13 16 mph 1013.3mb 64f 63f
2:50 3ft 12s 6s 11
mph
1013.9mb 64f 64f
1:50 3ft 15s 6s 11 13 mph 1014.7mb 64f 64f
12:50 3ft 16s 6s 7
mph
1014.9mb 64f 64f
11:50 3.5ft 7s 6s 2 7 mph 1015.5mb 65f 62f
10:50 3ft 11s 6s 2
mph
1015.9mb 64f 62f
9:50 3.5ft 12s 6s 2 4 mph 1015.7mb 63f 61f
8:50 3.5ft 11s 6s 2 4 mph 1015.8mb 62f 60f
7:50 3.5ft 6s 5s 7 9 mph 1015.3mb 62f 60f
6:50 4ft 11s 6s 7 9 mph 1014.5mb 62f 60f
5:50 4.5ft 6s 6s 4 7 mph 1013.9mb 62f 60f
4:50 4.5ft 6s 6s 4 7 mph 1014mb 62f 61f
3:50 4ft 7s 6s 4 7 mph 1013.9mb 62f 61f
2:50 4.5ft 6s 6s 4 7 mph 1014.2mb 62f 61f
1:50  -   -   -  11 16 mph 1014.1mb 62f 62f
12:50 4.5ft 6s 5s 11 13 mph 1014mb 62f 63f
mar 04/14 11:50 5ft 8s 5s 18 20 mph 1013.7mb 62f 63f
10:50 5ft 6s 6s 16 20 mph 1014.1mb 62f 63f
9:50 5ft 6s 6s 7 9 mph 1014.6mb 62f 62f
8:50 4.5ft 6s 5s 9 11 mph 1014.5mb 63f 62f
7:50 4ft 9s 5s 7 9 mph 1014.3mb 63f 62f
6:50 4ft 14s 5s 16 18 mph 1014.4mb 63f 61f
5:50 3.5ft 14s 5s 18 20 mph 1014.7mb 63f 61f
4:50 3.5ft 8s 5s 18 20 mph 1015.8mb 63f 61f
3:50 3.5ft 7s 5s 18 25 mph 1016.6mb 63f 62f
2:50 3.5ft 8s 6s 13 16 mph 1017.5mb 64f 60f
1:50 3.5ft 8s 6s 11 13 mph 1018.4mb 64f 60f
12:50 4ft 7s 6s 7 9 mph 1019mb 64f 59f
11:50 3.5ft 8s 6s 7
mph
1019.7mb 63f 58f
10:50 3.5ft 8s 6s 4 7 mph 1019.8mb 63f 58f
9:50 3.5ft 6s 6s  -  4 mph 1020.2mb 62f 60f
8:50 3.5ft 7s 6s  -  4 mph 1020.2mb 62f 59f
7:50 3.5ft 14s 6s 7 9 mph 1018.8mb 62f 59f
6:50 3.5ft 6s 5s 9 13 mph 1018.6mb 62f 59f
5:50 3.5ft 6s 6s 11 13 mph 1017.7mb 62f 58f
4:50 3.5ft 15s 5s 9 13 mph 1017.9mb 62f 58f